Time,TemperatureF,DewpointF,PressureIn,WindDirection,WindDirectionDegrees,WindSpeedMPH,WindSpeedGustMPH,Humidity,HourlyPrecipIn,Conditions,Clouds,dailyrainin,SoftwareType,DateUTC
2013-02-21 00:00:00,25.2,14.7,29.79,NE,45,3.4,5.8,64,0.00,CLR,,0.00,WeatherDisplay:10.37,2013-02-21 05:00:00,
2013-02-21 00:05:00,25.1,14.6,29.79,West,270,5.3,9.2,64,0.00,CLR,,0.00,WeatherDisplay:10.37,2013-02-21 05:05:00,
2013-02-21 00:10:00,24.9,14.4,29.78,WNW,292,3.4,8.1,64,0.00,CLR,,0.00,WeatherDisplay:10.37,2013-02-21 05:10:00,
2013-02-21 00:15:00,24.9,14.4,29.79,West,270,8.5,9.2,64,0.00,CLR,,0.00,WeatherDisplay:10.37,2013-02-21 05:15:00,
2013-02-21 00:20:00,24.8,14.3,29.78,West,270,2.7,5.8,64,0.00,CLR,,0.00,WeatherDisplay:10.37,2013-02-21 05:20:00,
2013-02-21 00:25:00,24.9,14.1,29.79,WNW,292,7.2,12.7,63,0.00,CLR,,0.00,WeatherDisplay:10.37,2013-02-21 05:25:00,
2013-02-21 00:30:00,24.8,14.3,29.79,WNW,292,3.4,6.9,64,0.00,CLR,,0.00,WeatherDisplay:10.37,2013-02-21 05:30:00,
2013-02-21 00:35:00,24.7,14.6,29.79,West,270,2.6,4.6,65,0.00,CLR,,0.00,WeatherDisplay:10.37,2013-02-21 05:35:00,
2013-02-21 00:40:00,24.6,14.5,29.79,WSW,247,6.0,8.1,65,0.00,CLR,,0.00,WeatherDisplay:10.37,2013-02-21 05:40:00,
2013-02-21 00:45:00,24.5,14.8,29.79,West,270,3.5,4.6,66,0.00,CLR,,0.00,WeatherDisplay:10.37,2013-02-21 05:45:00,
2013-02-21 00:50:00,24.6,14.5,29.79,WNW,292,6.2,9.2,65,0.00,CLR,,0.00,WeatherDisplay:10.37,2013-02-21 05:50:00,
2013-02-21 00:55:00,24.6,14.9,29.80,WNW,292,2.5,5.8,66,0.00,CLR,,0.00,WeatherDisplay:10.37,2013-02-21 05:55:00,
2013-02-21 01:01:00,24.8,14.7,29.80,NNW,337,6.3,6.9,65,0.00,CLR,,0.00,WeatherDisplay:10.37,2013-02-21 06:01:00,
2013-02-21 01:06:00,24.9,14.8,29.79,NW,315,2.8,4.6,65,0.00,CLR,,0.00,WeatherDisplay:10.37,2013-02-21 06:06:00,
2013-02-21 01:11:00,25.0,15.2,29.80,WSW,247,4.0,9.2,66,0.00,CLR,,0.00,WeatherDisplay:10.37,2013-02-21 06:11:00,
2013-02-21 01:17:00,25.1,15.3,29.80,NW,315,4.0,6.9,66,0.00,CLR,,0.00,WeatherDisplay:10.37,2013-02-21 06:17:00,
2013-02-21 01:22:00,25.3,15.5,29.80,West,270,3.9,8.1,66,0.00,CLR,,0.00,WeatherDisplay:10.37,2013-02-21 06:22:00,
2013-02-21 01:27:00,25.5,15.7,29.80,NNW,337,5.3,8.1,66,0.00,CLR,,0.00,WeatherDisplay:10.37,2013-02-21 06:27:00,
2013-02-21 01:32:00,25.5,16.1,29.80,NNW,337,4.8,8.1,67,0.00,CLR,,0.00,WeatherDisplay:10.37,2013-02-21 06:32:00,
2013-02-21 01:37:00,25.5,15.7,29.80,West,270,2.0,2.3,66,0.00,CLR,,0.00,WeatherDisplay:10.37,2013-02-21 06:37:00,
2013-02-21 01:42:00,25.5,16.1,29.80,North,360,4.1,5.8,67,0.00,CLR,,0.00,WeatherDisplay:10.37,2013-02-21 06:42:00,
2013-02-21 01:47:00,25.5,16.1,29.79,NW,315,3.7,6.9,67,0.00,CLR,,0.00,WeatherDisplay:10.37,2013-02-21 06:47:00,
2013-02-21 01:52:00,25.5,16.1,29.80,WSW,247,2.9,5.8,67,0.00,FEW,,0.00,WeatherDisplay:10.37,2013-02-21 06:52:00,
2013-02-21 01:57:00,25.4,16.0,29.79,WNW,292,4.7,9.2,67,0.00,FEW,,0.00,WeatherDisplay:10.37,2013-02-21 06:57:00,
2013-02-21 02:02:00,25.3,15.9,29.80,West,270,3.5,4.6,67,0.00,FEW,,0.00,WeatherDisplay:10.37,2013-02-21 07:02:00,
2013-02-21 02:07:00,25.3,16.2,29.80,West,270,2.9,4.6,68,0.00,FEW,,0.00,WeatherDisplay:10.37,2013-02-21 07:07:00,
2013-02-21 02:12:00,25.3,16.2,29.80,NW,315,3.2,4.6,68,0.00,FEW,,0.00,WeatherDisplay:10.37,2013-02-21 07:12:00,
2013-02-21 02:17:00,25.3,16.2,29.80,WNW,292,5.3,9.2,68,0.00,FEW,,0.00,WeatherDisplay:10.37,2013-02-21 07:17:00,
2013-02-21 02:22:00,25.4,16.0,29.79,NNE,22,3.6,5.8,67,0.00,FEW,,0.00,WeatherDisplay:10.37,2013-02-21 07:22:00,
2013-02-21 02:27:00,25.4,16.3,29.79,West,270,1.3,2.3,68,0.00,FEW,,0.00,WeatherDisplay:10.37,2013-02-21 07:27:00,
2013-02-21 02:32:00,25.5,16.1,29.80,NW,315,5.7,6.9,67,0.00,FEW,,0.00,WeatherDisplay:10.37,2013-02-21 07:32:00,
2013-02-21 02:37:00,25.6,16.5,29.80,West,270,3.6,6.7,68,0.00,FEW,,0.00,WeatherDisplay:10.37,2013-02-21 07:37:00,
2013-02-21 02:42:00,25.6,16.2,29.79,West,270,2.7,2.7,67,0.00,FEW,,0.00,WeatherDisplay:10.37,2013-02-21 07:42:00,
2013-02-21 02:47:00,25.7,16.3,29.79,North,360,2.5,5.8,67,0.00,FEW,,0.00,WeatherDisplay:10.37,2013-02-21 07:47:00,
2013-02-21 02:52:00,25.7,16.3,29.79,West,270,3.8,8.1,67,0.00,FEW,,0.00,WeatherDisplay:10.37,2013-02-21 07:52:00,
2013-02-21 02:57:00,25.7,16.3,29.80,NNW,337,2.4,2.7,67,0.00,FEW,,0.00,WeatherDisplay:10.37,2013-02-21 07:57:00,
2013-02-21 03:02:00,25.7,16.3,29.80,NW,315,2.5,4.6,67,0.00,FEW,,0.00,WeatherDisplay:10.37,2013-02-21 08:02:00,
2013-02-21 03:07:00,25.7,16.3,29.80,WNW,292,2.4,2.7,67,0.00,FEW,,0.00,WeatherDisplay:10.37,2013-02-21 08:07:00,
2013-02-21 03:12:00,25.8,16.3,29.79,NNW,337,5.9,9.5,67,0.00,FEW,,0.00,WeatherDisplay:10.37,2013-02-21 08:12:00,
2013-02-21 03:17:00,25.8,16.0,29.79,West,270,6.4,9.2,66,0.00,FEW,,0.00,WeatherDisplay:10.37,2013-02-21 08:17:00,
2013-02-21 03:22:00,25.8,15.6,29.80,WNW,292,3.0,5.8,65,0.00,BKN,,0.00,WeatherDisplay:10.37,2013-02-21 08:22:00,
2013-02-21 03:27:00,25.7,15.9,29.80,North,360,4.5,8.1,66,0.00,BKN,,0.00,WeatherDisplay:10.37,2013-02-21 08:27:00,
2013-02-21 03:32:00,25.7,15.2,29.80,West,270,5.1,8.1,64,0.00,BKN,,0.00,WeatherDisplay:10.37,2013-02-21 08:32:00,
2013-02-21 03:37:00,25.6,15.5,29.80,WSW,247,2.6,5.8,65,0.00,BKN,,0.00,WeatherDisplay:10.37,2013-02-21 08:37:00,
2013-02-21 03:42:00,25.6,15.1,29.80,NW,315,2.5,4.6,64,0.00,BKN,,0.00,WeatherDisplay:10.37,2013-02-21 08:42:00,
2013-02-21 03:47:00,25.4,15.3,29.80,West,270,3.9,5.8,65,0.00,BKN,,0.00,WeatherDisplay:10.37,2013-02-21 08:47:00,
2013-02-21 03:52:00,25.5,14.6,29.80,West,270,4.6,8.1,63,0.00,BKN,,0.00,WeatherDisplay:10.37,2013-02-21 08:52:00,
2013-02-21 03:57:00,25.4,14.9,29.81,WNW,292,3.3,5.8,64,0.00,BKN,,0.00,WeatherDisplay:10.37,2013-02-21 08:57:00,
2013-02-21 04:02:00,25.1,15.0,29.80,West,270,1.6,5.8,65,0.00,CLR,,0.00,WeatherDisplay:10.37,2013-02-21 09:02:00,
2013-02-21 04:07:00,24.9,14.4,29.80,WNW,292,3.6,8.1,64,0.00,CLR,,0.00,WeatherDisplay:10.37,2013-02-21 09:07:00,
2013-02-21 04:12:00,24.9,14.4,29.80,WNW,292,3.3,4.6,64,0.00,CLR,,0.00,WeatherDisplay:10.37,2013-02-21 09:12:00,
2013-02-21 04:17:00,24.8,14.7,29.80,North,360,5.9,8.1,65,0.00,CLR,,0.00,WeatherDisplay:10.37,2013-02-21 09:17:00,
2013-02-21 04:22:00,24.8,14.3,29.80,WSW,247,6.7,12.7,64,0.00,CLR,,0.00,WeatherDisplay:10.37,2013-02-21 09:22:00,
2013-02-21 04:27:00,24.7,14.2,29.80,WNW,292,8.5,9.5,64,0.00,CLR,,0.00,WeatherDisplay:10.37,2013-02-21 09:27:00,
2013-02-21 04:32:00,24.8,14.3,29.80,NE,45,2.8,5.8,64,0.00,CLR,,0.00,WeatherDisplay:10.37,2013-02-21 09:32:00,
2013-02-21 04:37:00,24.6,14.1,29.80,WNW,292,5.9,9.2,64,0.00,CLR,,0.00,WeatherDisplay:10.37,2013-02-21 09:37:00,
2013-02-21 04:42:00,24.7,13.9,29.80,NNW,337,7.7,10.4,63,0.00,CLR,,0.00,WeatherDisplay:10.37,2013-02-21 09:42:00,
2013-02-21 04:47:00,24.7,13.9,29.81,WSW,247,5.0,10.4,63,0.00,CLR,,0.00,WeatherDisplay:10.37,2013-02-21 09:47:00,
2013-02-21 04:52:00,24.8,14.0,29.81,NNE,22,4.8,5.8,63,0.00,CLR,,0.00,WeatherDisplay:10.37,2013-02-21 09:52:00,
2013-02-21 04:57:00,24.7,13.9,29.81,West,270,7.0,10.8,63,0.00,CLR,,0.00,WeatherDisplay:10.37,2013-02-21 09:57:00,
2013-02-21 05:02:00,24.7,13.9,29.81,WSW,247,4.3,9.2,63,0.00,CLR,,0.00,WeatherDisplay:10.37,2013-02-21 10:02:00,
2013-02-21 05:07:00,24.7,13.5,29.81,SSW,202,6.2,12.7,62,0.00,CLR,,0.00,WeatherDisplay:10.37,2013-02-21 10:07:00,
2013-02-21 05:12:00,24.7,13.1,29.81,West,270,12.1,21.9,61,0.00,CLR,,0.00,WeatherDisplay:10.37,2013-02-21 10:12:00,
2013-02-21 05:17:00,24.6,13.1,29.81,West,270,7.4,15.0,61,0.00,CLR,,0.00,WeatherDisplay:10.37,2013-02-21 10:17:00,
2013-02-21 05:22:00,24.5,13.0,29.81,WNW,292,6.0,12.7,61,0.00,CLR,,0.00,WeatherDisplay:10.37,2013-02-21 10:22:00,
2013-02-21 05:27:00,24.4,13.2,29.81,WNW,292,5.3,6.9,62,0.00,CLR,,0.00,WeatherDisplay:10.37,2013-02-21 10:27:00,
2013-02-21 05:32:00,24.4,13.6,29.81,West,270,8.8,9.5,63,0.00,CLR,,0.00,WeatherDisplay:10.37,2013-02-21 10:32:00,
2013-02-21 05:37:00,24.4,13.2,29.81,NW,315,6.0,12.7,62,0.00,CLR,,0.00,WeatherDisplay:10.37,2013-02-21 10:37:00,
2013-02-21 05:42:00,24.2,13.4,29.81,WSW,247,7.1,10.4,63,0.00,CLR,,0.00,WeatherDisplay:10.37,2013-02-21 10:42:00,
2013-02-21 05:47:00,24.0,13.2,29.81,WSW,247,3.4,10.4,63,0.00,CLR,,0.00,WeatherDisplay:10.37,2013-02-21 10:47:00,
2013-02-21 05:52:00,23.9,13.1,29.81,West,270,4.9,15.0,63,0.00,CLR,,0.00,WeatherDisplay:10.37,2013-02-21 10:52:00,
2013-02-21 05:57:00,23.8,13.0,29.81,NW,315,6.7,9.2,63,0.00,CLR,,0.00,WeatherDisplay:10.37,2013-02-21 10:57:00,
2013-02-21 06:02:00,23.7,13.3,29.82,NW,315,5.5,9.2,64,0.00,CLR,,0.00,WeatherDisplay:10.37,2013-02-21 11:02:00,
2013-02-21 06:07:00,23.6,12.8,29.82,West,270,3.0,5.8,63,0.00,CLR,,0.00,WeatherDisplay:10.37,2013-02-21 11:07:00,
2013-02-21 06:12:00,23.5,12.7,29.82,South,180,2.4,2.7,63,0.00,CLR,,0.00,WeatherDisplay:10.37,2013-02-21 11:12:00,
2013-02-21 06:17:00,23.4,13.0,29.82,West,270,2.5,4.6,64,0.00,CLR,,0.00,WeatherDisplay:10.37,2013-02-21 11:17:00,
2013-02-21 06:22:00,23.2,12.8,29.82,North,360,2.8,2.8,64,0.00,CLR,,0.00,WeatherDisplay:10.37,2013-02-21 11:22:00,
2013-02-21 06:27:00,23.0,12.6,29.82,NE,45,5.3,9.2,64,0.00,CLR,,0.00,WeatherDisplay:10.37,2013-02-21 11:27:00,
2013-02-21 06:32:00,22.9,12.9,29.82,West,270,1.6,2.7,65,0.00,CLR,,0.00,WeatherDisplay:10.37,2013-02-21 11:32:00,
2013-02-21 06:37:00,22.8,12.8,29.82,NE,45,4.4,5.8,65,0.00,CLR,,0.00,WeatherDisplay:10.37,2013-02-21 11:37:00,
2013-02-21 06:42:00,22.8,12.8,29.82,North,360,3.3,5.8,65,0.00,CLR,,0.00,WeatherDisplay:10.37,2013-02-21 11:42:00,
2013-02-21 06:47:00,22.6,12.6,29.83,WNW,292,3.6,5.8,65,0.00,CLR,,0.00,WeatherDisplay:10.37,2013-02-21 11:47:00,
2013-02-21 06:52:00,22.5,12.5,29.83,West,270,3.3,5.8,65,0.00,CLR,,0.00,WeatherDisplay:10.37,2013-02-21 11:52:00,
2013-02-21 06:57:00,22.6,12.6,29.82,NNW,337,5.7,9.2,65,0.00,CLR,,0.00,WeatherDisplay:10.37,2013-02-21 11:57:00,
2013-02-21 07:02:00,22.7,12.7,29.83,West,270,3.5,4.6,65,0.00,CLR,,0.00,WeatherDisplay:10.37,2013-02-21 12:02:00,
2013-02-21 07:07:00,22.7,12.7,29.83,North,360,1.8,4.1,65,0.00,CLR,,0.00,WeatherDisplay:10.37,2013-02-21 12:07:00,
2013-02-21 07:12:00,22.7,12.7,29.83,WNW,292,4.1,8.1,65,0.00,CLR,,0.00,WeatherDisplay:10.37,2013-02-21 12:12:00,
2013-02-21 07:17:00,22.8,12.8,29.84,North,360,5.3,8.1,65,0.00,CLR,,0.00,WeatherDisplay:10.37,2013-02-21 12:17:00,
2013-02-21 07:22:00,22.9,12.5,29.83,WNW,292,3.5,8.1,64,0.00,CLR,,0.00,WeatherDisplay:10.37,2013-02-21 12:22:00,
2013-02-21 07:27:00,22.8,12.8,29.83,WNW,292,3.7,4.6,65,0.00,CLR,,0.00,WeatherDisplay:10.37,2013-02-21 12:27:00,
2013-02-21 07:32:00,23.0,13.0,29.83,WNW,292,4.3,5.8,65,0.00,CLR,,0.00,WeatherDisplay:10.37,2013-02-21 12:32:00,
2013-02-21 07:37:00,23.2,13.2,29.83,West,270,4.3,8.1,65,0.00,CLR,,0.00,WeatherDisplay:10.37,2013-02-21 12:37:00,
2013-02-21 07:42:00,23.4,13.0,29.83,WNW,292,3.2,8.1,64,0.00,CLR,,0.00,WeatherDisplay:10.37,2013-02-21 12:42:00,
2013-02-21 07:47:00,23.3,13.3,29.83,WNW,292,3.3,8.1,65,0.00,CLR,,0.00,WeatherDisplay:10.37,2013-02-21 12:47:00,
2013-02-21 07:52:00,23.4,13.4,29.83,NNW,337,4.6,4.6,65,0.00,CLR,,0.00,WeatherDisplay:10.37,2013-02-21 12:52:00,
2013-02-21 07:57:00,23.5,13.1,29.83,WNW,292,7.9,12.7,64,0.00,CLR,,0.00,WeatherDisplay:10.37,2013-02-21 12:57:00,
2013-02-21 08:02:00,23.7,13.3,29.83,West,270,7.2,8.1,64,0.00,SCT,,0.00,WeatherDisplay:10.37,2013-02-21 13:02:00,
2013-02-21 08:07:00,23.9,13.5,29.82,West,270,6.6,8.1,64,0.00,SCT,,0.00,WeatherDisplay:10.37,2013-02-21 13:07:00,
2013-02-21 08:12:00,24.1,13.7,29.83,North,360,6.7,10.4,64,0.00,SCT,,0.00,WeatherDisplay:10.37,2013-02-21 13:12:00,
2013-02-21 08:17:00,24.5,14.1,29.83,WSW,247,4.1,5.8,64,0.00,SCT,,0.00,WeatherDisplay:10.37,2013-02-21 13:17:00,
2013-02-21 08:22:00,24.6,13.8,29.83,NNW,337,5.4,12.7,63,0.00,SCT,,0.00,WeatherDisplay:10.37,2013-02-21 13:22:00,
2013-02-21 08:27:00,24.6,13.8,29.83,WSW,247,6.2,8.1,63,0.00,SCT,,0.00,WeatherDisplay:10.37,2013-02-21 13:27:00,
2013-02-21 08:32:00,24.7,13.9,29.83,West,270,5.2,6.9,63,0.00,SCT,,0.00,WeatherDisplay:10.37,2013-02-21 13:32:00,
2013-02-21 08:37:00,24.6,13.8,29.82,West,270,8.3,10.4,63,0.00,SCT,,0.00,WeatherDisplay:10.37,2013-02-21 13:37:00,
2013-02-21 08:42:00,24.7,13.9,29.82,West,270,7.6,15.0,63,0.00,SCT,,0.00,WeatherDisplay:10.37,2013-02-21 13:42:00,
2013-02-21 08:47:00,25.2,14.4,29.82,NE,45,4.9,12.7,63,0.00,SCT,,0.00,WeatherDisplay:10.37,2013-02-21 13:47:00,
2013-02-21 08:52:00,25.4,14.2,29.82,NW,315,5.9,10.4,62,0.00,SCT,,0.00,WeatherDisplay:10.37,2013-02-21 13:52:00,
2013-02-21 08:57:00,25.7,13.7,29.82,WSW,247,13.3,21.9,60,0.00,SCT,,0.00,WeatherDisplay:10.37,2013-02-21 13:57:00,
2013-02-21 09:02:00,25.9,13.1,29.83,North,360,5.9,15.0,58,0.00,CLR,,0.00,WeatherDisplay:10.37,2013-02-21 14:02:00,
2013-02-21 09:07:00,26.3,13.1,29.83,West,270,8.0,12.7,57,0.00,CLR,,0.00,WeatherDisplay:10.37,2013-02-21 14:07:00,
2013-02-21 09:12:00,26.4,12.4,29.82,WNW,292,7.4,25.3,55,0.00,CLR,,0.00,WeatherDisplay:10.37,2013-02-21 14:12:00,
2013-02-21 09:17:00,26.8,12.8,29.81,North,360,8.3,12.7,55,0.00,CLR,,0.00,WeatherDisplay:10.37,2013-02-21 14:17:00,
2013-02-21 09:22:00,26.8,12.4,29.81,West,270,10.9,28.8,54,0.00,CLR,,0.00,WeatherDisplay:10.37,2013-02-21 14:22:00,
2013-02-21 09:27:00,26.7,11.8,29.81,WSW,247,12.6,20.7,53,0.00,CLR,,0.00,WeatherDisplay:10.37,2013-02-21 14:27:00,
2013-02-21 09:32:00,27.0,12.1,29.81,NW,315,10.5,10.5,53,0.00,CLR,,0.00,WeatherDisplay:10.37,2013-02-21 14:32:00,
2013-02-21 09:37:00,27.0,11.7,29.81,WNW,292,9.8,17.3,52,0.00,CLR,,0.00,WeatherDisplay:10.37,2013-02-21 14:37:00,
2013-02-21 09:42:00,27.3,12.0,29.81,NNE,22,10.0,12.7,52,0.00,CLR,,0.00,WeatherDisplay:10.37,2013-02-21 14:42:00,
2013-02-21 09:47:00,27.4,12.1,29.81,West,270,12.1,20.7,52,0.00,CLR,,0.00,WeatherDisplay:10.37,2013-02-21 14:47:00,
2013-02-21 09:52:00,27.5,12.2,29.81,West,270,13.0,18.4,52,0.00,CLR,,0.00,WeatherDisplay:10.37,2013-02-21 14:52:00,
2013-02-21 09:57:00,28.0,12.6,29.82,North,360,8.0,12.7,52,0.00,CLR,,0.00,WeatherDisplay:10.37,2013-02-21 14:57:00,
2013-02-21 10:02:00,28.4,12.6,29.82,North,360,8.7,13.8,51,0.00,CLR,,0.00,WeatherDisplay:10.37,2013-02-21 15:02:00,
2013-02-21 10:07:00,28.7,12.4,29.81,West,270,8.7,9.2,50,0.00,CLR,,0.00,WeatherDisplay:10.37,2013-02-21 15:07:00,
2013-02-21 10:12:00,28.9,12.6,29.81,WNW,292,11.3,21.9,50,0.00,CLR,,0.00,WeatherDisplay:10.37,2013-02-21 15:12:00,
2013-02-21 10:17:00,28.9,13.0,29.82,NNW,337,6.1,12.7,51,0.00,CLR,,0.00,WeatherDisplay:10.37,2013-02-21 15:17:00,
2013-02-21 10:22:00,28.9,13.5,29.82,NW,315,10.5,10.5,52,0.00,CLR,,0.00,WeatherDisplay:10.37,2013-02-21 15:22:00,
2013-02-21 10:27:00,29.2,13.7,29.82,North,360,7.4,10.8,52,0.00,CLR,,0.00,WeatherDisplay:10.37,2013-02-21 15:27:00,
2013-02-21 10:32:00,29.6,13.7,29.82,West,270,9.5,12.7,51,0.00,CLR,,0.00,WeatherDisplay:10.37,2013-02-21 15:32:00,
2013-02-21 10:37:00,29.2,13.3,29.82,WNW,292,4.5,6.9,51,0.00,CLR,,0.00,WeatherDisplay:10.37,2013-02-21 15:37:00,
2013-02-21 10:42:00,29.1,13.2,29.82,NNW,337,8.1,13.8,51,0.00,CLR,,0.00,WeatherDisplay:10.37,2013-02-21 15:42:00,
2013-02-21 10:47:00,29.6,13.2,29.82,SW,225,12.0,17.3,50,0.00,CLR,,0.00,WeatherDisplay:10.37,2013-02-21 15:47:00,
2013-02-21 10:52:00,29.3,13.4,29.82,NNW,337,6.9,12.7,51,0.00,CLR,,0.00,WeatherDisplay:10.37,2013-02-21 15:52:00,
2013-02-21 10:57:00,29.7,12.8,29.83,NW,315,6.9,12.7,49,0.00,CLR,,0.00,WeatherDisplay:10.37,2013-02-21 15:57:00,
2013-02-21 11:02:00,30.1,13.7,29.83,WNW,292,9.8,17.3,50,0.00,CLR,,0.00,WeatherDisplay:10.37,2013-02-21 16:02:00,
2013-02-21 11:07:00,29.9,12.6,29.82,North,360,9.1,15.0,48,0.00,CLR,,0.00,WeatherDisplay:10.37,2013-02-21 16:07:00,
2013-02-21 11:12:00,29.6,12.8,29.83,West,270,8.7,18.4,49,0.00,CLR,,0.00,WeatherDisplay:10.37,2013-02-21 16:12:00,
2013-02-21 11:17:00,30.2,12.8,29.82,West,270,11.8,18.4,48,0.00,CLR,,0.00,WeatherDisplay:10.37,2013-02-21 16:17:00,
2013-02-21 11:22:00,29.7,12.8,29.82,West,270,7.6,15.0,49,0.00,CLR,,0.00,WeatherDisplay:10.37,2013-02-21 16:22:00,
2013-02-21 11:27:00,30.2,12.8,29.82,WNW,292,10.1,13.8,48,0.00,CLR,,0.00,WeatherDisplay:10.37,2013-02-21 16:27:00,
2013-02-21 11:32:00,30.6,13.7,29.82,NW,315,7.6,10.4,49,0.00,CLR,,0.00,WeatherDisplay:10.37,2013-02-21 16:32:00,
2013-02-21 11:37:00,30.6,13.2,29.82,WSW,247,11.3,18.4,48,0.00,CLR,,0.00,WeatherDisplay:10.37,2013-02-21 16:37:00,
2013-02-21 11:42:00,30.6,12.7,29.82,NNW,337,7.8,12.7,47,0.00,CLR,,0.00,WeatherDisplay:10.37,2013-02-21 16:42:00,
2013-02-21 11:47:00,31.4,13.9,29.82,NNW,337,6.5,9.2,48,0.00,CLR,,0.00,WeatherDisplay:10.37,2013-02-21 16:47:00,
2013-02-21 11:52:00,31.6,13.7,29.82,NNW,337,7.1,12.7,47,0.00,CLR,,0.00,WeatherDisplay:10.37,2013-02-21 16:52:00,
2013-02-21 11:57:00,31.7,13.7,29.82,WSW,247,7.6,12.1,47,0.00,CLR,,0.00,WeatherDisplay:10.37,2013-02-21 16:57:00,
2013-02-21 12:02:00,31.7,13.7,29.82,West,270,11.5,16.1,47,0.00,CLR,,0.00,WeatherDisplay:10.37,2013-02-21 17:02:00,
2013-02-21 12:07:00,31.5,13.6,29.82,West,270,11.4,12.7,47,0.00,CLR,,0.00,WeatherDisplay:10.37,2013-02-21 17:07:00,
2013-02-21 12:12:00,31.7,13.3,29.83,NE,45,8.0,15.0,46,0.00,CLR,,0.00,WeatherDisplay:10.37,2013-02-21 17:12:00,
2013-02-21 12:17:00,31.9,14.4,29.82,West,270,9.5,15.0,48,0.00,CLR,,0.00,WeatherDisplay:10.37,2013-02-21 17:17:00,
2013-02-21 12:22:00,31.9,13.9,29.83,West,270,9.3,18.4,47,0.00,CLR,,0.00,WeatherDisplay:10.37,2013-02-21 17:22:00,
2013-02-21 12:27:00,32.1,14.1,29.82,West,270,10.4,15.0,47,0.00,CLR,,0.00,WeatherDisplay:10.37,2013-02-21 17:27:00,
2013-02-21 12:32:00,32.3,13.8,29.82,WSW,247,9.0,16.1,46,0.00,CLR,,0.00,WeatherDisplay:10.37,2013-02-21 17:32:00,
2013-02-21 12:37:00,32.5,14.5,29.82,WSW,247,9.0,14.8,47,0.00,CLR,,0.00,WeatherDisplay:10.37,2013-02-21 17:37:00,
2013-02-21 12:42:00,32.5,13.5,29.82,NE,45,8.3,12.7,45,0.00,CLR,,0.00,WeatherDisplay:10.37,2013-02-21 17:42:00,
2013-02-21 12:47:00,33.0,14.4,29.82,West,270,9.6,13.8,46,0.00,CLR,,0.00,WeatherDisplay:10.37,2013-02-21 17:47:00,
2013-02-21 12:52:00,33.8,14.2,29.82,WNW,292,6.2,9.2,44,0.00,CLR,,0.00,WeatherDisplay:10.37,2013-02-21 17:52:00,
2013-02-21 12:57:00,33.4,14.3,29.82,WNW,292,9.2,13.8,45,0.00,CLR,,0.00,WeatherDisplay:10.37,2013-02-21 17:57:00,
2013-02-21 13:02:00,33.6,14.0,29.82,NW,315,12.5,13.8,44,0.00,BKN,,0.00,WeatherDisplay:10.37,2013-02-21 18:02:00,
2013-02-21 13:07:00,33.7,14.1,29.82,North,360,8.7,14.8,44,0.00,BKN,,0.00,WeatherDisplay:10.37,2013-02-21 18:07:00,
2013-02-21 13:12:00,33.4,14.3,29.82,West,270,6.5,8.1,45,0.00,BKN,,0.00,WeatherDisplay:10.37,2013-02-21 18:12:00,
2013-02-21 13:17:00,33.8,14.7,29.81,NE,45,9.6,12.7,45,0.00,BKN,,0.00,WeatherDisplay:10.37,2013-02-21 18:17:00,
2013-02-21 13:22:00,33.6,14.5,29.82,NE,45,7.8,12.7,45,0.00,BKN,,0.00,WeatherDisplay:10.37,2013-02-21 18:22:00,
2013-02-21 13:27:00,33.3,13.7,29.82,WNW,292,10.1,15.0,44,0.00,BKN,,0.00,WeatherDisplay:10.37,2013-02-21 18:27:00,
2013-02-21 13:32:00,33.6,14.0,29.82,West,270,8.3,12.1,44,0.00,BKN,,0.00,WeatherDisplay:10.37,2013-02-21 18:32:00,
2013-02-21 13:37:00,33.7,14.1,29.82,WNW,292,8.2,16.1,44,0.00,BKN,,0.00,WeatherDisplay:10.37,2013-02-21 18:37:00,
2013-02-21 13:42:00,33.9,14.3,29.81,WNW,292,11.2,15.0,44,0.00,BKN,,0.00,WeatherDisplay:10.37,2013-02-21 18:42:00,
2013-02-21 13:47:00,33.8,14.2,29.82,WNW,292,14.6,16.1,44,0.00,BKN,,0.00,WeatherDisplay:10.37,2013-02-21 18:47:00,
2013-02-21 13:52:00,33.5,14.4,29.82,West,270,6.0,23.0,45,0.00,BKN,,0.00,WeatherDisplay:10.37,2013-02-21 18:52:00,
2013-02-21 13:57:00,34.3,15.6,29.82,SW,225,3.9,8.1,46,0.00,BKN,,0.00,WeatherDisplay:10.37,2013-02-21 18:57:00,
2013-02-21 14:02:00,34.3,14.6,29.82,NW,315,12.0,16.1,44,0.00,FEW,,0.00,WeatherDisplay:10.37,2013-02-21 19:02:00,
2013-02-21 14:07:00,34.7,15.0,29.82,NNE,22,7.0,12.1,44,0.00,FEW,,0.00,WeatherDisplay:10.37,2013-02-21 19:07:00,
2013-02-21 14:12:00,34.6,14.9,29.83,NNW,337,7.6,15.0,44,0.00,FEW,,0.00,WeatherDisplay:10.37,2013-02-21 19:12:00,
2013-02-21 14:17:00,34.9,14.6,29.82,WSW,247,8.0,10.4,43,0.00,FEW,,0.00,WeatherDisplay:10.37,2013-02-21 19:17:00,
2013-02-21 14:22:00,34.7,15.0,29.82,WNW,292,11.6,13.8,44,0.00,FEW,,0.00,WeatherDisplay:10.37,2013-02-21 19:22:00,
2013-02-21 14:27:00,34.1,14.9,29.83,WNW,292,6.9,9.5,45,0.00,FEW,,0.00,WeatherDisplay:10.37,2013-02-21 19:27:00,
2013-02-21 14:32:00,34.6,15.4,29.84,NE,45,6.0,8.1,45,0.00,FEW,,0.00,WeatherDisplay:10.37,2013-02-21 19:32:00,
2013-02-21 14:37:00,35.2,15.4,29.84,West,270,2.9,9.2,44,0.00,FEW,,0.00,WeatherDisplay:10.37,2013-02-21 19:37:00,
2013-02-21 14:42:00,34.7,15.0,29.84,NNW,337,5.0,12.7,44,0.00,FEW,,0.00,WeatherDisplay:10.37,2013-02-21 19:42:00,
2013-02-21 14:47:00,34.7,15.0,29.84,North,360,7.6,9.2,44,0.00,FEW,,0.00,WeatherDisplay:10.37,2013-02-21 19:47:00,
2013-02-21 14:52:00,34.4,14.7,29.84,North,360,6.7,8.1,44,0.00,FEW,,0.00,WeatherDisplay:10.37,2013-02-21 19:52:00,
2013-02-21 14:57:00,34.0,14.3,29.85,SW,225,7.4,15.0,44,0.00,FEW,,0.00,WeatherDisplay:10.37,2013-02-21 19:57:00,
2013-02-21 15:02:00,33.8,14.7,29.85,WSW,247,8.1,15.0,45,0.00,CLR,,0.00,WeatherDisplay:10.37,2013-02-21 20:02:00,
2013-02-21 15:07:00,33.7,14.6,29.85,NW,315,7.2,16.1,45,0.00,CLR,,0.00,WeatherDisplay:10.37,2013-02-21 20:07:00,
2013-02-21 15:12:00,33.0,13.9,29.86,WSW,247,6.9,9.2,45,0.00,CLR,,0.00,WeatherDisplay:10.37,2013-02-21 20:12:00,
2013-02-21 15:17:00,32.2,13.7,29.86,North,360,7.1,12.7,46,0.00,CLR,,0.00,WeatherDisplay:10.37,2013-02-21 20:17:00,
2013-02-21 15:22:00,32.0,14.0,29.86,North,360,10.0,24.2,47,0.00,CLR,,0.00,WeatherDisplay:10.37,2013-02-21 20:22:00,
2013-02-21 15:27:00,32.5,15.4,29.86,WSW,247,5.4,12.7,49,0.00,CLR,,0.00,WeatherDisplay:10.37,2013-02-21 20:27:00,
2013-02-21 15:32:00,32.8,13.8,29.86,NW,315,6.3,8.1,45,0.00,CLR,,0.00,WeatherDisplay:10.37,2013-02-21 20:32:00,
2013-02-21 15:37:00,32.9,14.8,29.87,NE,45,4.1,9.2,47,0.00,CLR,,0.00,WeatherDisplay:10.37,2013-02-21 20:37:00,
2013-02-21 15:42:00,32.9,14.4,29.87,NE,45,4.7,12.7,46,0.00,CLR,,0.00,WeatherDisplay:10.37,2013-02-21 20:42:00,
2013-02-21 15:47:00,32.8,14.3,29.88,NE,45,6.4,6.4,46,0.00,CLR,,0.00,WeatherDisplay:10.37,2013-02-21 20:47:00,
2013-02-21 15:52:00,32.7,14.2,29.87,NNE,22,12.8,25.3,46,0.00,CLR,,0.00,WeatherDisplay:10.37,2013-02-21 20:52:00,
2013-02-21 15:57:00,32.7,14.7,29.88,NNE,22,6.9,13.8,47,0.00,CLR,,0.00,WeatherDisplay:10.37,2013-02-21 20:57:00,
2013-02-21 16:02:00,32.5,14.5,29.88,SSE,157,5.0,12.7,47,0.00,SCT,,0.00,WeatherDisplay:10.37,2013-02-21 21:02:00,
2013-02-21 16:07:00,32.4,14.4,29.88,NW,315,9.4,13.8,47,0.00,SCT,,0.00,WeatherDisplay:10.37,2013-02-21 21:07:00,
2013-02-21 16:12:00,32.2,14.7,29.88,North,360,9.6,12.7,48,0.00,SCT,,0.00,WeatherDisplay:10.37,2013-02-21 21:12:00,
2013-02-21 16:17:00,31.9,14.4,29.89,NE,45,6.1,8.1,48,0.00,SCT,,0.00,WeatherDisplay:10.37,2013-02-21 21:17:00,
2013-02-21 16:22:00,31.8,14.3,29.89,NNW,337,5.4,8.1,48,0.00,SCT,,0.00,WeatherDisplay:10.37,2013-02-21 21:22:00,
2013-02-21 16:27:00,31.4,14.4,29.90,WSW,247,10.5,16.1,49,0.00,SCT,,0.00,WeatherDisplay:10.37,2013-02-21 21:27:00,
2013-02-21 16:32:00,31.0,14.5,29.90,NE,45,8.0,17.3,50,0.00,SCT,,0.00,WeatherDisplay:10.37,2013-02-21 21:32:00,
2013-02-21 16:37:00,30.9,14.9,29.90,SE,135,4.8,9.2,51,0.00,SCT,,0.00,WeatherDisplay:10.37,2013-02-21 21:37:00,
2013-02-21 16:42:00,30.8,14.3,29.91,NNW,337,7.0,10.4,50,0.00,SCT,,0.00,WeatherDisplay:10.37,2013-02-21 21:42:00,
2013-02-21 16:47:00,30.6,14.1,29.91,NW,315,8.1,8.1,50,0.00,SCT,,0.00,WeatherDisplay:10.37,2013-02-21 21:47:00,
2013-02-21 16:52:00,30.3,13.9,29.92,West,270,5.8,14.8,50,0.00,SCT,,0.00,WeatherDisplay:10.37,2013-02-21 21:52:00,
2013-02-21 16:57:00,30.3,14.3,29.92,WSW,247,4.7,12.7,51,0.00,SCT,,0.00,WeatherDisplay:10.37,2013-02-21 21:57:00,
2013-02-21 17:02:00,30.1,14.6,29.93,SW,225,4.0,5.8,52,0.00,SCT,,0.00,WeatherDisplay:10.37,2013-02-21 22:02:00,
2013-02-21 17:07:00,29.9,14.4,29.93,SW,225,9.3,17.6,52,0.00,SCT,,0.00,WeatherDisplay:10.37,2013-02-21 22:07:00,
2013-02-21 17:12:00,29.6,13.7,29.94,NNE,22,7.5,16.1,51,0.00,SCT,,0.00,WeatherDisplay:10.37,2013-02-21 22:12:00,
2013-02-21 17:17:00,29.3,14.3,29.94,SW,225,5.9,8.1,53,0.00,SCT,,0.00,WeatherDisplay:10.37,2013-02-21 22:17:00,
2013-02-21 17:22:00,29.1,13.6,29.94,WNW,292,8.4,15.0,52,0.00,OVC,,0.00,WeatherDisplay:10.37,2013-02-21 22:22:00,
2013-02-21 17:27:00,28.8,13.8,29.95,West,270,7.0,10.4,53,0.00,OVC,,0.00,WeatherDisplay:10.37,2013-02-21 22:27:00,
2013-02-21 17:32:00,28.6,14.0,29.95,NNE,22,5.1,12.7,54,0.00,OVC,,0.00,WeatherDisplay:10.37,2013-02-21 22:32:00,
2013-02-21 17:37:00,28.4,13.9,29.96,NW,315,4.1,13.8,54,0.00,OVC,,0.00,WeatherDisplay:10.37,2013-02-21 22:37:00,
2013-02-21 17:42:00,28.3,13.8,29.96,WNW,292,5.6,12.7,54,0.00,OVC,,0.00,WeatherDisplay:10.37,2013-02-21 22:42:00,
2013-02-21 17:47:00,28.1,14.0,29.97,West,270,2.7,10.4,55,0.00,OVC,,0.00,WeatherDisplay:10.37,2013-02-21 22:47:00,
2013-02-21 17:52:00,27.9,13.8,29.97,NNE,22,5.4,21.9,55,0.00,OVC,,0.00,WeatherDisplay:10.37,2013-02-21 22:52:00,
2013-02-21 17:57:00,27.9,13.8,29.97,North,360,7.6,8.1,55,0.00,OVC,,0.00,WeatherDisplay:10.37,2013-02-21 22:57:00,
2013-02-21 18:02:00,27.9,13.8,29.97,NE,45,5.7,10.4,55,0.00,CLR,,0.00,WeatherDisplay:10.37,2013-02-21 23:02:00,
2013-02-21 18:07:00,27.7,13.6,29.98,NE,45,4.6,6.9,55,0.00,CLR,,0.00,WeatherDisplay:10.37,2013-02-21 23:07:00,
2013-02-21 18:12:00,27.6,13.5,29.98,NW,315,14.1,18.4,55,0.00,CLR,,0.00,WeatherDisplay:10.37,2013-02-21 23:12:00,
2013-02-21 18:17:00,27.7,13.6,29.98,WSW,247,9.4,17.3,55,0.00,CLR,,0.00,WeatherDisplay:10.37,2013-02-21 23:17:00,
2013-02-21 18:22:00,27.6,13.5,29.99,NE,45,1.7,5.8,55,0.00,CLR,,0.00,WeatherDisplay:10.37,2013-02-21 23:22:00,
2013-02-21 18:27:00,27.3,13.7,30.00,WNW,292,5.4,12.7,56,0.00,CLR,,0.00,WeatherDisplay:10.37,2013-02-21 23:27:00,
2013-02-21 18:32:00,27.2,13.6,30.00,WNW,292,7.5,12.1,56,0.00,CLR,,0.00,WeatherDisplay:10.37,2013-02-21 23:32:00,
2013-02-21 18:37:00,27.2,13.6,30.00,WSW,247,3.7,9.2,56,0.00,CLR,,0.00,WeatherDisplay:10.37,2013-02-21 23:37:00,
2013-02-21 18:42:00,27.0,13.4,30.00,North,360,6.1,9.2,56,0.00,CLR,,0.00,WeatherDisplay:10.37,2013-02-21 23:42:00,
2013-02-21 18:47:00,26.9,13.7,30.00,West,270,5.7,15.0,57,0.00,CLR,,0.00,WeatherDisplay:10.37,2013-02-21 23:47:00,
2013-02-21 18:52:00,26.9,13.7,30.00,NNW,337,6.4,12.7,57,0.00,CLR,,0.00,WeatherDisplay:10.37,2013-02-21 23:52:00,
2013-02-21 18:57:00,26.8,13.6,30.01,NNE,22,4.7,10.4,57,0.00,CLR,,0.00,WeatherDisplay:10.37,2013-02-21 23:57:00,
2013-02-21 19:02:00,26.7,13.9,30.01,NNE,22,3.9,9.2,58,0.00,BKN,,0.00,WeatherDisplay:10.37,2013-02-22 00:02:00,
2013-02-21 19:07:00,26.8,14.0,30.02,WNW,292,7.8,12.7,58,0.00,BKN,,0.00,WeatherDisplay:10.37,2013-02-22 00:07:00,
2013-02-21 19:12:00,26.8,14.4,30.02,WNW,292,8.6,16.1,59,0.00,BKN,,0.00,WeatherDisplay:10.37,2013-02-22 00:12:00,
2013-02-21 19:17:00,26.8,14.0,30.02,WNW,292,3.0,9.2,58,0.00,BKN,,0.00,WeatherDisplay:10.37,2013-02-22 00:17:00,
2013-02-21 19:22:00,26.9,14.1,30.02,West,270,6.0,12.7,58,0.00,BKN,,0.00,WeatherDisplay:10.37,2013-02-22 00:22:00,
2013-02-21 19:27:00,26.8,14.4,30.03,West,270,6.3,9.2,59,0.00,BKN,,0.00,WeatherDisplay:10.37,2013-02-22 00:27:00,
2013-02-21 19:32:00,26.7,14.3,30.03,SE,135,4.1,5.8,59,0.00,BKN,,0.00,WeatherDisplay:10.37,2013-02-22 00:32:00,
2013-02-21 19:37:00,26.5,14.5,30.03,NNE,22,3.7,5.8,60,0.00,BKN,,0.00,WeatherDisplay:10.37,2013-02-22 00:37:00,
2013-02-21 19:42:00,26.4,14.4,30.05,WNW,292,5.1,9.5,60,0.00,BKN,,0.00,WeatherDisplay:10.37,2013-02-22 00:42:00,
2013-02-21 19:47:00,26.5,14.5,30.04,SSE,157,3.0,10.4,60,0.00,BKN,,0.00,WeatherDisplay:10.37,2013-02-22 00:47:00,
2013-02-21 19:52:00,26.4,14.4,30.05,NNW,337,4.6,9.2,60,0.00,BKN,,0.00,WeatherDisplay:10.37,2013-02-22 00:52:00,
2013-02-21 19:57:00,26.3,14.3,30.06,North,360,4.4,8.1,60,0.00,BKN,,0.00,WeatherDisplay:10.37,2013-02-22 00:57:00,
2013-02-21 20:02:00,26.3,14.3,30.06,NW,315,5.0,9.2,60,0.00,CLR,,0.00,WeatherDisplay:10.37,2013-02-22 01:02:00,
2013-02-21 20:07:00,26.1,14.5,30.06,NW,315,5.3,8.1,61,0.00,CLR,,0.00,WeatherDisplay:10.37,2013-02-22 01:07:00,
2013-02-21 20:12:00,26.2,14.6,30.06,NNE,22,4.6,8.1,61,0.00,CLR,,0.00,WeatherDisplay:10.37,2013-02-22 01:12:00,
2013-02-21 20:17:00,25.9,15.0,30.06,SSW,202,3.1,10.4,63,0.00,CLR,,0.00,WeatherDisplay:10.37,2013-02-22 01:17:00,
2013-02-21 20:22:00,25.9,15.0,30.07,NNE,22,2.4,2.7,63,0.00,CLR,,0.00,WeatherDisplay:10.37,2013-02-22 01:22:00,
2013-02-21 20:27:00,25.7,14.8,30.08,WSW,247,3.9,5.4,63,0.00,CLR,,0.00,WeatherDisplay:10.37,2013-02-22 01:27:00,
2013-02-21 20:32:00,25.7,14.8,30.08,NW,315,2.5,4.6,63,0.00,CLR,,0.00,WeatherDisplay:10.37,2013-02-22 01:32:00,
2013-02-21 20:37:00,25.6,15.1,30.08,NE,45,3.8,3.8,64,0.00,CLR,,0.00,WeatherDisplay:10.37,2013-02-22 01:37:00,
2013-02-21 20:42:00,25.4,14.5,30.09,WNW,292,3.5,8.1,63,0.00,CLR,,0.00,WeatherDisplay:10.37,2013-02-22 01:42:00,
2013-02-21 20:47:00,25.5,15.4,30.08,North,360,3.9,8.1,65,0.00,CLR,,0.00,WeatherDisplay:10.37,2013-02-22 01:47:00,
2013-02-21 20:52:00,25.4,14.9,30.08,WNW,292,2.4,4.6,64,0.00,CLR,,0.00,WeatherDisplay:10.37,2013-02-22 01:52:00,
2013-02-21 20:57:00,25.4,14.9,30.09,NNE,22,3.6,6.9,64,0.00,CLR,,0.00,WeatherDisplay:10.37,2013-02-22 01:57:00,
2013-02-21 21:02:00,25.3,15.2,30.09,WNW,292,1.7,2.3,65,0.00,CLR,,0.00,WeatherDisplay:10.37,2013-02-22 02:02:00,
2013-02-21 21:07:00,25.3,15.2,30.09,NW,315,6.3,9.2,65,0.00,CLR,,0.00,WeatherDisplay:10.37,2013-02-22 02:07:00,
2013-02-21 21:12:00,25.4,15.3,30.10,North,360,6.2,6.2,65,0.00,CLR,,0.00,WeatherDisplay:10.37,2013-02-22 02:12:00,
2013-02-21 21:17:00,25.5,15.4,30.10,NNE,22,4.4,8.1,65,0.00,CLR,,0.00,WeatherDisplay:10.37,2013-02-22 02:17:00,
2013-02-21 21:22:00,25.5,15.7,30.10,West,270,2.8,6.9,66,0.00,CLR,,0.00,WeatherDisplay:10.37,2013-02-22 02:22:00,
2013-02-21 21:27:00,25.5,15.4,30.11,NE,45,2.6,5.8,65,0.00,CLR,,0.00,WeatherDisplay:10.37,2013-02-22 02:27:00,
2013-02-21 21:32:00,25.5,15.7,30.11,NW,315,4.0,9.2,66,0.00,CLR,,0.00,WeatherDisplay:10.37,2013-02-22 02:32:00,
2013-02-21 21:37:00,25.3,15.2,30.11,NNE,22,6.2,9.2,65,0.00,CLR,,0.00,WeatherDisplay:10.37,2013-02-22 02:37:00,
2013-02-21 21:42:00,25.3,15.5,30.11,SSE,157,3.8,4.6,66,0.00,CLR,,0.00,WeatherDisplay:10.37,2013-02-22 02:42:00,
2013-02-21 21:47:00,25.2,15.8,30.11,SSW,202,2.9,4.6,67,0.00,CLR,,0.00,WeatherDisplay:10.37,2013-02-22 02:47:00,
2013-02-21 21:52:00,25.2,15.4,30.11,North,360,4.6,12.7,66,0.00,CLR,,0.00,WeatherDisplay:10.37,2013-02-22 02:52:00,
2013-02-21 21:57:00,25.2,15.8,30.11,North,360,3.0,8.1,67,0.00,CLR,,0.00,WeatherDisplay:10.37,2013-02-22 02:57:00,
2013-02-21 22:02:00,25.0,15.6,30.11,SW,225,3.6,4.1,67,0.00,CLR,,0.00,WeatherDisplay:10.37,2013-02-22 03:02:00,
2013-02-21 22:07:00,24.9,15.1,30.12,WSW,247,3.7,3.7,66,0.00,CLR,,0.00,WeatherDisplay:10.37,2013-02-22 03:07:00,
2013-02-21 22:12:00,24.9,15.5,30.12,NW,315,4.1,4.1,67,0.00,CLR,,0.00,WeatherDisplay:10.37,2013-02-22 03:12:00,
2013-02-21 22:17:00,24.8,15.4,30.12,NNW,337,2.2,5.8,67,0.00,CLR,,0.00,WeatherDisplay:10.37,2013-02-22 03:17:00,
2013-02-21 22:22:00,24.6,15.5,30.12,NW,315,2.0,2.0,68,0.00,CLR,,0.00,WeatherDisplay:10.37,2013-02-22 03:22:00,
2013-02-21 22:27:00,24.5,15.4,30.13,WNW,292,3.3,3.3,68,0.00,CLR,,0.00,WeatherDisplay:10.37,2013-02-22 03:27:00,
2013-02-21 22:32:00,24.4,15.3,30.13,WNW,292,2.5,2.7,68,0.00,CLR,,0.00,WeatherDisplay:10.37,2013-02-22 03:32:00,
2013-02-21 22:37:00,24.5,15.4,30.14,NW,315,3.1,5.8,68,0.00,CLR,,0.00,WeatherDisplay:10.37,2013-02-22 03:37:00,
2013-02-21 22:42:00,24.4,15.7,30.14,North,360,2.8,5.8,69,0.00,CLR,,0.00,WeatherDisplay:10.37,2013-02-22 03:42:00,
2013-02-21 22:47:00,24.3,15.9,30.14,WNW,292,3.0,6.9,70,0.00,CLR,,0.00,WeatherDisplay:10.37,2013-02-22 03:47:00,
2013-02-21 22:52:00,24.3,15.6,30.14,NW,315,2.2,2.3,69,0.00,CLR,,0.00,WeatherDisplay:10.37,2013-02-22 03:52:00,
2013-02-21 22:57:00,24.3,15.9,30.15,West,270,3.7,5.8,70,0.00,CLR,,0.00,WeatherDisplay:10.37,2013-02-22 03:57:00,
2013-02-21 23:02:00,24.4,15.7,30.15,NW,315,0.1,9.2,69,0.00,CLR,,0.00,WeatherDisplay:10.37,2013-02-22 04:02:00,
2013-02-21 23:07:00,24.2,15.8,30.14,West,270,0.5,2.3,70,0.00,CLR,,0.00,WeatherDisplay:10.37,2013-02-22 04:07:00,
2013-02-21 23:12:00,24.2,15.8,30.16,NNW,337,1.7,6.9,70,0.00,CLR,,0.00,WeatherDisplay:10.37,2013-02-22 04:12:00,
2013-02-21 23:17:00,24.1,15.7,30.16,West,270,2.9,2.9,70,0.00,CLR,,0.00,WeatherDisplay:10.37,2013-02-22 04:17:00,
2013-02-21 23:22:00,23.9,15.9,30.16,North,360,2.1,2.7,71,0.00,CLR,,0.00,WeatherDisplay:10.37,2013-02-22 04:22:00,
2013-02-21 23:27:00,23.9,16.2,30.16,WNW,292,2.6,5.8,72,0.00,CLR,,0.00,WeatherDisplay:10.37,2013-02-22 04:27:00,
2013-02-21 23:32:00,23.9,15.9,30.16,WNW,292,2.6,4.6,71,0.00,CLR,,0.00,WeatherDisplay:10.37,2013-02-22 04:32:00,
2013-02-21 23:37:00,24.0,16.0,30.17,WNW,292,3.6,5.8,71,0.00,CLR,,0.00,WeatherDisplay:10.37,2013-02-22 04:37:00,
2013-02-21 23:42:00,23.9,16.2,30.18,WNW,292,0.4,2.3,72,0.00,CLR,,0.00,WeatherDisplay:10.37,2013-02-22 04:42:00,
2013-02-21 23:47:00,23.5,16.1,30.18,NE,45,3.2,5.8,73,0.00,CLR,,0.00,WeatherDisplay:10.37,2013-02-22 04:47:00,
2013-02-21 23:52:00,23.7,16.0,30.18,WSW,247,3.6,5.8,72,0.00,CLR,,0.00,WeatherDisplay:10.37,2013-02-22 04:52:00,
2013-02-21 23:57:00,23.7,16.3,30.20,West,270,0.9,2.7,73,0.00,CLR,,0.00,WeatherDisplay:10.37,2013-02-22 04:57:00,